createdAt,value
2018-06-16T00:00:58.104Z,14.57
2018-06-16T00:03:33.005Z,16.13
2018-06-16T00:06:07.845Z,16.30
2018-06-16T00:08:42.693Z,14.60
2018-06-16T00:11:17.915Z,15.70
2018-06-16T00:13:52.752Z,15.23
2018-06-16T00:16:27.440Z,15.33
2018-06-16T00:19:02.280Z,15.47
2018-06-16T00:21:37.176Z,16.13
2018-06-16T00:24:11.876Z,15.90
2018-06-16T00:26:46.856Z,15.20
2018-06-16T00:29:21.708Z,16.60
2018-06-16T00:31:56.649Z,16.03
2018-06-16T00:34:32.952Z,16.80
2018-06-16T00:37:08.116Z,14.47
2018-06-16T00:39:43.184Z,14.90
2018-06-16T00:42:17.812Z,14.20
2018-06-16T00:44:52.823Z,15.57
2018-06-16T00:47:27.828Z,16.13
2018-06-16T00:50:02.836Z,14.63
2018-06-16T00:52:37.680Z,15.43
2018-06-16T00:55:12.346Z,16.70
2018-06-16T00:57:49.041Z,16.17
2018-06-16T01:00:23.512Z,15.43
2018-06-16T01:02:58.392Z,16.00
2018-06-16T01:05:32.857Z,13.73
2018-06-16T01:08:08.048Z,15.47
2018-06-16T01:10:43.053Z,14.07
2018-06-16T01:13:18.072Z,15.80
2018-06-16T01:15:52.936Z,16.00
2018-06-16T01:18:27.539Z,15.13
2018-06-16T01:21:02.233Z,14.70
2018-06-16T01:23:37.787Z,15.70
2018-06-16T01:26:12.596Z,16.23
2018-06-16T01:28:47.410Z,14.60
2018-06-16T01:31:22.864Z,17.30
2018-06-16T01:33:58.019Z,14.53
2018-06-16T01:36:32.960Z,17.23
2018-06-16T01:39:09.409Z,15.40
2018-06-16T01:41:43.680Z,16.87
2018-06-16T01:44:18.476Z,13.30
2018-06-16T01:46:53.865Z,15.33
2018-06-16T01:49:28.642Z,15.90
2018-06-16T01:52:02.990Z,15.07
2018-06-16T01:54:38.087Z,14.90
2018-06-16T01:57:13.028Z,15.23
2018-06-16T01:59:47.909Z,14.60
2018-06-16T02:02:22.816Z,14.23
2018-06-16T02:04:57.560Z,15.67
2018-06-16T02:07:32.232Z,14.43
2018-06-16T02:10:07.690Z,14.57
2018-06-16T02:12:43.045Z,18.23
2018-06-16T02:15:17.987Z,15.43
2018-06-16T02:17:52.930Z,14.17
2018-06-16T02:20:27.944Z,16.07
2018-06-16T02:23:03.343Z,13.67
2018-06-16T02:25:38.039Z,13.60
2018-06-16T02:28:12.880Z,11.93
2018-06-16T02:30:47.883Z,16.03
2018-06-16T02:33:22.881Z,16.27
2018-06-16T02:35:57.912Z,15.30
2018-06-16T02:38:32.544Z,14.47
2018-06-16T02:41:07.768Z,16.13
2018-06-16T02:43:42.612Z,14.50
2018-06-16T02:46:17.775Z,14.17
2018-06-16T02:48:53.069Z,13.77
2018-06-16T02:51:28.316Z,17.20
2018-06-16T02:54:03.404Z,15.50
2018-06-16T02:56:37.759Z,15.30
2018-06-16T02:59:13.002Z,15.30
2018-06-16T03:01:47.934Z,15.43
2018-06-16T03:04:23.328Z,15.47
2018-06-16T03:06:58.260Z,15.27
2018-06-16T03:09:32.816Z,13.93
2018-06-16T03:12:07.725Z,14.10
2018-06-16T03:14:42.577Z,16.10
2018-06-16T03:17:17.710Z,15.40
2018-06-16T03:19:52.836Z,14.47
2018-06-16T03:22:27.236Z,14.70
2018-06-16T03:25:02.337Z,15.97
2018-06-16T03:27:36.694Z,14.70
2018-06-16T03:30:11.481Z,14.10
2018-06-16T03:32:46.297Z,14.43
2018-06-16T03:35:21.542Z,14.90
2018-06-16T03:37:56.216Z,14.23
2018-06-16T03:40:30.989Z,14.90
2018-06-16T03:43:06.107Z,13.83
2018-06-16T03:45:41.385Z,13.17
2018-06-16T03:48:16.722Z,13.73
2018-06-16T03:50:51.516Z,15.90
2018-06-16T03:53:26.692Z,14.77
2018-06-16T03:56:01.661Z,13.10
2018-06-16T03:58:36.656Z,15.53
2018-06-16T04:01:11.618Z,12.70
2018-06-16T04:03:46.400Z,12.60
2018-06-16T04:06:20.903Z,20.67
2018-06-16T04:08:56.077Z,14.80
2018-06-16T04:11:31.177Z,14.80
2018-06-16T04:14:06.331Z,12.57
2018-06-16T04:16:41.203Z,11.30
2018-06-16T04:19:16.142Z,13.40
2018-06-16T04:21:50.763Z,11.30
2018-06-16T04:24:25.877Z,10.33
2018-06-16T04:27:00.400Z,11.20
2018-06-16T04:29:35.565Z,12.23
2018-06-16T04:32:10.407Z,12.87
2018-06-16T04:34:45.320Z,11.00
2018-06-16T04:37:19.695Z,13.83
2018-06-16T04:39:55.013Z,13.43
2018-06-16T04:42:29.660Z,12.83
2018-06-16T04:45:04.380Z,10.33
2018-06-16T04:47:39.596Z,11.20
2018-06-16T04:50:14.228Z,12.37
2018-06-16T04:52:49.041Z,13.93
2018-06-16T04:55:24.306Z,12.47
2018-06-16T04:57:59.340Z,12.50
2018-06-16T05:00:34.260Z,12.47
2018-06-16T05:03:08.887Z,10.73
2018-06-16T05:05:43.401Z,12.60
2018-06-16T05:08:18.568Z,12.23
2018-06-16T05:10:53.505Z,11.17
2018-06-16T05:13:28.188Z,11.47
2018-06-16T05:16:03.060Z,12.13
2018-06-16T05:18:38.212Z,13.40
2018-06-16T05:21:13.114Z,12.83
2018-06-16T05:23:48.054Z,12.70
2018-06-16T05:26:22.985Z,12.20
2018-06-16T05:28:57.916Z,11.57
2018-06-16T05:31:33.236Z,11.70
2018-06-16T05:34:08.044Z,10.30
2018-06-16T05:36:42.435Z,11.23
2018-06-16T05:39:17.860Z,11.23
2018-06-16T05:41:52.853Z,10.03
2018-06-16T05:44:28.340Z,11.40
2018-06-16T05:47:02.825Z,10.17
2018-06-16T05:49:37.655Z,10.17
2018-06-16T05:52:12.805Z,9.60
2018-06-16T05:54:47.409Z,9.53
2018-06-16T05:57:22.595Z,9.90
2018-06-16T05:59:57.513Z,9.40
2018-06-16T06:02:32.050Z,7.67
2018-06-16T06:05:07.213Z,9.10
2018-06-16T06:07:41.949Z,9.13
2018-06-16T06:10:16.741Z,8.00
2018-06-16T06:12:51.578Z,8.70
2018-06-16T06:15:26.361Z,8.60
2018-06-16T06:18:01.008Z,7.57
2018-06-16T06:20:36.157Z,8.03
2018-06-16T06:23:11.288Z,8.50
2018-06-16T06:25:45.668Z,7.77
2018-06-16T06:28:20.753Z,8.70
2018-06-16T06:30:55.699Z,7.80
2018-06-16T06:33:30.395Z,7.90
2018-06-16T06:36:05.779Z,8.17
2018-06-16T06:38:40.404Z,9.13
2018-06-16T06:41:14.798Z,7.83
2018-06-16T06:43:49.421Z,8.37
2018-06-16T06:46:24.029Z,7.47
2018-06-16T06:48:58.962Z,7.93
2018-06-16T06:51:33.834Z,8.73
2018-06-16T06:54:08.174Z,8.40
2018-06-16T06:56:42.865Z,9.33
2018-06-16T06:59:17.607Z,8.10
2018-06-16T07:01:52.983Z,7.73
2018-06-16T07:04:27.605Z,8.20
2018-06-16T07:07:01.932Z,8.63
2018-06-16T07:09:36.706Z,11.20
2018-06-16T07:12:11.652Z,8.83
2018-06-16T07:14:46.506Z,7.97
2018-06-16T07:17:21.304Z,7.53
2018-06-16T07:19:55.751Z,7.67
2018-06-16T07:22:30.737Z,7.67
2018-06-16T07:25:05.426Z,7.83
2018-06-16T07:27:39.841Z,8.10
2018-06-16T07:30:14.708Z,7.40
2018-06-16T07:32:49.368Z,6.27
2018-06-16T07:35:24.664Z,7.80
2018-06-16T07:37:59.150Z,8.30
2018-06-16T07:40:34.537Z,6.73
2018-06-16T07:43:08.906Z,6.50
2018-06-16T07:45:43.976Z,7.43
2018-06-16T07:48:19.085Z,7.40
2018-06-16T07:50:53.765Z,8.20
2018-06-16T07:53:29.022Z,8.37
2018-06-16T07:56:04.715Z,8.47
2018-06-16T07:58:39.612Z,7.77
2018-06-16T08:01:13.867Z,7.33
2018-06-16T08:03:48.712Z,10.70
2018-06-16T08:06:23.516Z,9.80
2018-06-16T08:08:58.144Z,8.33
2018-06-16T08:11:32.733Z,9.03
2018-06-16T08:14:07.718Z,7.30
2018-06-16T08:16:42.567Z,8.93
2018-06-16T08:19:17.237Z,8.50
2018-06-16T08:21:52.033Z,10.33
2018-06-16T08:24:26.922Z,7.37
2018-06-16T08:27:02.387Z,9.60
2018-06-16T08:29:37.010Z,9.93
2018-06-16T08:32:11.441Z,8.17
2018-06-16T08:34:46.219Z,8.10
2018-06-16T08:37:20.999Z,7.97
2018-06-16T08:39:56.252Z,8.70
2018-06-16T08:42:31.056Z,13.47
2018-06-16T08:45:05.639Z,7.97
2018-06-16T08:47:40.219Z,10.80
2018-06-16T08:50:15.189Z,8.90
2018-06-16T08:52:49.976Z,8.67
2018-06-16T08:55:24.363Z,8.67
2018-06-16T08:57:59.012Z,7.80
2018-06-16T09:00:33.661Z,9.20
2018-06-16T09:03:08.508Z,8.33
2018-06-16T09:05:43.212Z,14.47
2018-06-16T09:08:18.268Z,14.13
2018-06-16T09:10:52.848Z,9.80
2018-06-16T09:13:27.548Z,9.80
2018-06-16T09:16:02.365Z,11.57
2018-06-16T09:18:37.128Z,8.00
2018-06-16T09:21:13.221Z,9.33
2018-06-16T09:23:47.924Z,11.63
2018-06-16T09:26:22.697Z,11.60
2018-06-16T09:28:57.093Z,9.43
2018-06-16T09:31:31.796Z,9.73
2018-06-16T09:34:07.034Z,10.03
2018-06-16T09:36:41.596Z,9.63
2018-06-16T09:39:25.652Z,9.63
2018-06-16T09:42:00.071Z,9.70
2018-06-16T09:44:35.201Z,10.07
2018-06-16T09:47:10.076Z,11.03
2018-06-16T09:49:45.136Z,8.90
2018-06-16T09:52:19.681Z,9.53
2018-06-16T09:54:55.049Z,8.43
2018-06-16T09:57:29.764Z,11.50
2018-06-16T10:00:04.842Z,9.27
2018-06-16T10:02:40.195Z,9.70
2018-06-16T10:05:15.321Z,8.73
2018-06-16T10:07:50.305Z,10.93
2018-06-16T10:10:25.473Z,8.47
2018-06-16T10:12:59.956Z,14.33
2018-06-16T10:15:35.117Z,12.30
2018-06-16T10:18:09.510Z,7.90
2018-06-16T10:20:44.653Z,13.00
2018-06-16T10:23:19.297Z,6.30
2018-06-16T10:25:53.869Z,6.97
2018-06-16T10:28:28.628Z,6.67
2018-06-16T10:31:03.734Z,6.13
2018-06-16T10:33:38.248Z,5.83
2018-06-16T10:36:13.255Z,6.60
2018-06-16T10:38:48.053Z,7.00
2018-06-16T10:41:22.696Z,7.83
2018-06-16T10:43:57.857Z,7.40
2018-06-16T10:46:32.361Z,8.10
2018-06-16T10:49:07.512Z,6.80
2018-06-16T10:51:42.557Z,7.80
2018-06-16T10:54:17.037Z,6.13
2018-06-16T10:56:52.325Z,8.93
2018-06-16T10:59:26.480Z,8.67
2018-06-16T11:02:01.559Z,8.43
2018-06-16T11:04:36.939Z,8.60
2018-06-16T11:07:11.432Z,6.50
2018-06-16T11:09:46.068Z,6.27
2018-06-16T11:12:20.960Z,9.60
2018-06-16T11:14:55.487Z,8.20
2018-06-16T11:17:30.161Z,8.10
2018-06-16T11:20:05.588Z,6.50
2018-06-16T11:22:40.180Z,7.40
2018-06-16T11:25:14.672Z,7.47
2018-06-16T11:27:49.552Z,7.57
2018-06-16T11:30:24.322Z,7.57
2018-06-16T11:32:59.092Z,7.53
2018-06-16T11:35:33.824Z,8.07
2018-06-16T11:38:08.277Z,10.10
2018-06-16T11:40:42.903Z,7.73
2018-06-16T11:43:17.516Z,8.00
2018-06-16T11:45:52.246Z,6.97
2018-06-16T11:48:26.990Z,8.20
2018-06-16T11:51:02.184Z,8.07
2018-06-16T11:53:36.640Z,6.53
2018-06-16T11:56:11.481Z,9.23
2018-06-16T11:58:46.565Z,6.87
2018-06-16T12:01:20.816Z,6.70
2018-06-16T12:03:55.994Z,8.30
2018-06-16T12:06:30.772Z,5.57
2018-06-16T12:09:08.571Z,7.63
2018-06-16T12:11:43.049Z,7.63
2018-06-16T12:14:17.897Z,8.30
2018-06-16T12:16:52.694Z,6.57
2018-06-16T12:19:27.424Z,8.10
2018-06-16T12:22:02.150Z,4.57
2018-06-16T12:24:36.617Z,5.20
2018-06-16T12:27:11.628Z,7.10
2018-06-16T12:29:45.852Z,5.77
2018-06-16T12:32:21.016Z,4.90
2018-06-16T12:34:55.824Z,5.50
2018-06-16T12:37:31.501Z,7.13
2018-06-16T12:40:05.883Z,5.07
2018-06-16T12:42:40.856Z,4.93
2018-06-16T12:45:15.373Z,4.70
2018-06-16T12:47:50.237Z,5.57
2018-06-16T12:50:25.856Z,4.30
2018-06-16T12:53:01.289Z,4.53
2018-06-16T12:55:35.976Z,4.03
2018-06-16T12:58:10.480Z,3.17
2018-06-16T13:00:45.751Z,3.47
2018-06-16T13:03:21.324Z,4.50
2018-06-16T13:05:55.845Z,3.73
2018-06-16T13:08:30.761Z,4.87
2018-06-16T13:11:05.593Z,5.03
2018-06-16T13:13:40.400Z,2.90
2018-06-16T13:16:15.917Z,6.93
2018-06-16T13:18:50.501Z,5.07
2018-06-16T13:21:25.312Z,4.00
2018-06-16T13:24:00.032Z,3.30
2018-06-16T13:26:34.684Z,3.60
2018-06-16T13:29:09.915Z,4.30
2018-06-16T13:31:44.832Z,5.40
2018-06-16T13:34:19.716Z,3.53
2018-06-16T13:36:54.991Z,6.93
2018-06-16T13:39:30.537Z,7.10
2018-06-16T13:42:05.729Z,6.03
2018-06-16T13:44:40.304Z,4.77
2018-06-16T13:47:15.312Z,4.37
2018-06-16T13:49:50.524Z,5.03
2018-06-16T13:52:25.816Z,4.80
2018-06-16T13:55:00.461Z,6.30
2018-06-16T13:57:35.072Z,6.07
2018-06-16T14:00:09.946Z,4.37
2018-06-16T14:02:45.196Z,8.03
2018-06-16T14:05:20.241Z,4.40
2018-06-16T14:07:55.465Z,4.33
2018-06-16T14:10:30.928Z,5.93
2018-06-16T14:13:05.925Z,4.23
2018-06-16T14:15:40.378Z,9.70
2018-06-16T14:18:15.652Z,6.67
2018-06-16T14:20:53.499Z,4.27
2018-06-16T14:23:28.529Z,5.17
2018-06-16T14:26:03.197Z,4.00
2018-06-16T14:28:38.082Z,4.93
2018-06-16T14:31:12.966Z,4.80
2018-06-16T14:33:47.745Z,6.97
2018-06-16T14:36:22.898Z,4.10
2018-06-16T14:38:57.633Z,4.50
2018-06-16T14:41:33.217Z,5.60
2018-06-16T14:44:08.093Z,7.23
2018-06-16T14:46:42.696Z,4.33
2018-06-16T14:49:18.029Z,4.23
2018-06-16T14:51:52.674Z,3.80
2018-06-16T14:54:26.975Z,4.23
2018-06-16T14:57:02.521Z,5.47
2018-06-16T14:59:37.124Z,4.80
2018-06-16T15:02:12.864Z,10.30
2018-06-16T15:04:47.292Z,5.40
2018-06-16T15:07:22.077Z,5.47
2018-06-16T15:09:57.245Z,5.80
2018-06-16T15:12:31.712Z,5.53
2018-06-16T15:15:06.817Z,5.37
2018-06-16T15:17:41.594Z,4.97
2018-06-16T15:20:16.820Z,4.17
2018-06-16T15:22:51.428Z,4.17
2018-06-16T15:25:26.391Z,5.20
2018-06-16T15:28:01.560Z,4.50
2018-06-16T15:30:36.320Z,5.50
2018-06-16T15:33:11.013Z,4.77
2018-06-16T15:35:46.248Z,4.53
2018-06-16T15:38:20.704Z,4.83
2018-06-16T15:40:55.505Z,5.37
2018-06-16T15:43:30.320Z,4.43
2018-06-16T15:46:05.988Z,4.50
2018-06-16T15:48:41.093Z,4.50
2018-06-16T15:51:15.411Z,4.70
2018-06-16T15:53:50.360Z,4.50
2018-06-16T15:56:25.328Z,6.23
2018-06-16T15:59:00.295Z,5.63
2018-06-16T16:01:35.165Z,5.77
2018-06-16T16:04:10.333Z,6.00
2018-06-16T16:06:45.248Z,6.07
2018-06-16T16:09:20.169Z,7.77
2018-06-16T16:11:54.913Z,7.23
2018-06-16T16:14:30.312Z,4.67
2018-06-16T16:17:06.103Z,8.10
2018-06-16T16:19:41.692Z,6.83
2018-06-16T16:22:16.393Z,7.50
2018-06-16T16:24:51.233Z,6.90
2018-06-16T16:27:25.892Z,6.60
2018-06-16T16:30:00.880Z,9.00
2018-06-16T16:32:36.125Z,5.27
2018-06-16T16:35:11.137Z,8.20
2018-06-16T16:37:45.720Z,5.73
2018-06-16T16:40:20.719Z,6.20
2018-06-16T16:42:55.453Z,6.87
2018-06-16T16:45:30.713Z,6.10
2018-06-16T16:48:05.322Z,8.50
2018-06-16T16:50:40.607Z,6.53
2018-06-16T16:53:14.896Z,5.90
2018-06-16T16:55:50.013Z,8.23
2018-06-16T16:58:24.613Z,6.13
2018-06-16T17:00:59.667Z,6.27
2018-06-16T17:03:34.732Z,5.93
2018-06-16T17:06:09.424Z,6.10
2018-06-16T17:08:44.248Z,5.67
2018-06-16T17:11:19.300Z,5.87
2018-06-16T17:13:54.504Z,5.70
2018-06-16T17:16:29.893Z,5.97
2018-06-16T17:19:05.173Z,8.43
2018-06-16T17:21:40.072Z,8.23
2018-06-16T17:24:15.313Z,17.97
2018-06-16T17:26:50.317Z,8.10
2018-06-16T17:29:25.308Z,10.73
2018-06-16T17:32:00.238Z,11.63
2018-06-16T17:34:34.946Z,13.30
2018-06-16T17:37:09.949Z,11.30
2018-06-16T17:39:44.614Z,11.37
2018-06-16T17:42:19.384Z,10.60
2018-06-16T17:44:54.145Z,8.13
2018-06-16T17:47:28.904Z,6.83
2018-06-16T17:50:03.670Z,6.93
2018-06-16T17:52:38.184Z,7.43
2018-06-16T17:55:13.169Z,5.90
2018-06-16T17:57:47.890Z,6.10
2018-06-16T18:00:23.074Z,6.30
2018-06-16T18:02:58.968Z,6.10
2018-06-16T18:05:33.852Z,8.17
2018-06-16T18:08:08.990Z,5.80
2018-06-16T18:13:54.213Z,7.50
2018-06-16T18:16:29.357Z,5.80
2018-06-16T18:19:04.208Z,6.67
2018-06-16T18:21:39.395Z,6.33
2018-06-16T18:24:13.905Z,5.70
2018-06-16T18:26:48.651Z,5.90
2018-06-16T18:29:23.478Z,6.13
2018-06-16T18:31:59.539Z,5.50
2018-06-16T18:34:33.950Z,5.87
2018-06-16T18:37:09.186Z,6.17
2018-06-16T18:39:43.880Z,6.67
2018-06-16T18:42:18.679Z,8.40
2018-06-16T18:44:53.813Z,6.37
2018-06-16T18:47:28.809Z,6.20
2018-06-16T18:50:04.294Z,5.83
2018-06-16T18:52:39.043Z,6.50
2018-06-16T18:55:14.328Z,6.30
2018-06-16T18:57:49.102Z,5.43
2018-06-16T19:00:24.058Z,6.17
2018-06-16T19:02:59.043Z,7.83
2018-06-16T19:05:34.107Z,5.37
2018-06-16T19:08:09.057Z,5.33
2018-06-16T19:10:43.973Z,8.77
2018-06-16T19:13:19.189Z,5.87
2018-06-16T19:15:47.436Z,5.87
2018-06-16T19:18:15.864Z,5.80
2018-06-16T19:20:44.138Z,5.37
2018-06-16T19:23:12.933Z,6.20
2018-06-16T19:25:41.295Z,8.03
2018-06-16T19:28:09.965Z,7.60
2018-06-16T19:30:38.211Z,6.60
2018-06-16T19:33:06.452Z,5.13
2018-06-16T19:35:34.712Z,5.47
2018-06-16T19:38:02.889Z,6.00
2018-06-16T19:40:31.066Z,5.77
2018-06-16T19:42:59.802Z,7.07
2018-06-16T19:45:28.345Z,6.53
2018-06-16T19:47:56.591Z,6.80
2018-06-16T19:50:25.063Z,7.27
2018-06-16T19:52:53.728Z,5.77
2018-06-16T19:55:22.046Z,6.00
2018-06-16T19:57:50.697Z,6.27
2018-06-16T20:00:18.995Z,5.63
2018-06-16T20:02:47.335Z,6.37
2018-06-16T20:05:15.880Z,7.20
2018-06-16T20:07:44.195Z,6.03
2018-06-16T20:10:13.194Z,8.40
2018-06-16T20:12:41.616Z,6.87
2018-06-16T20:15:10.194Z,8.53
2018-06-16T20:17:39.227Z,6.77
2018-06-16T20:20:08.150Z,6.40
2018-06-16T20:22:37.283Z,6.53
2018-06-16T20:25:06.007Z,7.60
2018-06-16T20:27:34.222Z,8.50
2018-06-16T20:30:03.293Z,9.70
2018-06-16T20:32:31.496Z,9.10
2018-06-16T20:35:25.173Z,8.90
2018-06-16T20:37:54.374Z,9.43
2018-06-16T20:40:22.661Z,9.90
2018-06-16T20:42:51.339Z,9.63
2018-06-16T20:45:19.561Z,12.37
2018-06-16T20:47:48.463Z,9.60
2018-06-16T20:50:16.892Z,11.10
2018-06-16T20:52:45.457Z,18.53
2018-06-16T20:55:14.211Z,12.00
2018-06-16T20:57:42.420Z,12.60
2018-06-16T21:00:10.994Z,13.20
2018-06-16T21:02:39.885Z,11.83
2018-06-16T21:05:08.286Z,10.00
2018-06-16T21:07:36.727Z,10.27
2018-06-16T21:10:05.368Z,10.93
2018-06-16T21:12:34.851Z,10.33
2018-06-16T21:15:03.096Z,12.00
2018-06-16T21:17:31.302Z,10.83
2018-06-16T21:19:59.535Z,9.63
2018-06-16T21:22:27.940Z,10.43
2018-06-16T21:24:56.178Z,10.97
2018-06-16T21:27:29.908Z,9.03
2018-06-16T21:29:58.389Z,9.13
2018-06-16T21:32:26.656Z,10.20
2018-06-16T21:34:54.923Z,12.20
2018-06-16T21:37:23.566Z,9.37
2018-06-16T21:39:52.260Z,8.10
2018-06-16T21:42:20.720Z,7.53
2018-06-16T21:44:49.440Z,12.80
2018-06-16T21:47:17.882Z,8.23
2018-06-16T21:49:46.017Z,10.53
2018-06-16T21:52:14.140Z,8.13
2018-06-16T21:54:42.628Z,7.90
2018-06-16T21:57:11.100Z,9.17
2018-06-16T21:59:39.776Z,10.47
2018-06-16T22:02:07.911Z,7.80
2018-06-16T22:04:36.085Z,6.67
2018-06-16T22:07:04.371Z,8.60
2018-06-16T22:09:32.869Z,9.70
2018-06-16T22:12:01.008Z,8.43
2018-06-16T22:14:29.506Z,8.67
2018-06-16T22:16:57.844Z,11.53
2018-06-16T22:19:26.628Z,9.40
2018-06-16T22:21:54.755Z,13.10
2018-06-16T22:24:23.219Z,8.57
2018-06-16T22:26:51.352Z,11.07
2018-06-16T22:29:19.838Z,7.27
2018-06-16T22:31:47.974Z,7.80
2018-06-16T22:34:16.146Z,7.73
2018-06-16T22:36:44.306Z,8.47
2018-06-16T22:39:13.523Z,12.83
2018-06-16T22:41:41.660Z,9.57
2018-06-16T22:44:09.995Z,10.53
2018-06-16T22:46:38.177Z,8.27
2018-06-16T22:49:06.890Z,13.70
2018-06-16T22:51:35.040Z,11.20
2018-06-16T22:54:03.204Z,11.30
2018-06-16T22:56:31.610Z,11.20
2018-06-16T22:59:00.031Z,10.07
2018-06-16T23:01:28.161Z,12.70
2018-06-16T23:03:56.565Z,11.50
2018-06-16T23:06:24.717Z,11.70
2018-06-16T23:08:52.878Z,13.90
2018-06-16T23:11:21.256Z,10.90
2018-06-16T23:13:49.440Z,15.00
2018-06-16T23:16:17.602Z,13.60
2018-06-16T23:18:45.742Z,11.30
2018-06-16T23:21:14.226Z,14.40
2018-06-16T23:23:42.572Z,12.27
2018-06-16T23:26:10.731Z,12.80
2018-06-16T23:28:38.860Z,13.87
2018-06-16T23:31:07.048Z,12.73
2018-06-16T23:33:35.180Z,14.20
2018-06-16T23:36:03.734Z,15.67
2018-06-16T23:38:32.124Z,13.67
2018-06-16T23:41:00.274Z,14.83
2018-06-16T23:43:28.754Z,14.37
2018-06-16T23:45:56.893Z,14.53
2018-06-16T23:48:25.028Z,17.23
2018-06-16T23:50:53.488Z,15.53
2018-06-16T23:53:21.965Z,18.20
2018-06-16T23:55:50.503Z,17.50
2018-06-16T23:58:18.980Z,15.90
